Time;durP1;ratioP1;P1;durP2;ratioP2;P2;SDS_P1;SDS_P2;PMS_P1;PMS_P2;Temp;Humidity;BMP_temperature;BMP_pressure;BME280_temperature;BME280_humidity;BME280_pressure;Samples;Min_cycle;Max_cycle;Signal;HPM_P1;HPM_P2
2024/03/03 00:00:14;;;;;;;;;;;;;;;;;;4183277;28;20300;-60
2024/03/03 00:02:15;;;;;;;;;;;;;;;;;;4182365;28;19924;-60
2024/03/03 00:04:17;;;;;;;;;;;;;;;;;;4182795;28;19920;-60
2024/03/03 00:06:18;;;;;;;;;;;;;;;;;;4183158;28;19925;-60
2024/03/03 00:08:22;;;;;;;;;;;;;;;;;;4183120;28;19944;-60
2024/03/03 00:10:24;;;;;;;;;;;;;;;;;;4183047;28;20443;-60
2024/03/03 00:12:27;;;;;;;;;;;;;;;;;;4182982;28;19951;-60
2024/03/03 00:14:28;;;;;;;;;;;;;;;;;;4165272;28;19968;-61
2024/03/03 00:16:32;;;;;;;;;;;;;;;;;;4183240;28;19920;-60
2024/03/03 00:18:37;;;;;;;;;;;;;;;;;;4183252;28;19928;-60
2024/03/03 00:20:39;;;;;;;;;;;;;;;;;;4182981;28;19963;-60
2024/03/03 00:22:41;;;;;;;;;;;;;;;;;;4182789;28;19921;-60
2024/03/03 00:24:42;;;;;;;;;;;;;;;;;;4182737;28;19935;-60
2024/03/03 00:26:44;;;;;;;;;;;;;;;;;;4184357;28;19921;-60
2024/03/03 00:28:45;;;;;;;;;;;;;;;;;;4181285;28;20384;-60
2024/03/03 00:30:47;;;;;;;;;;;;;;;;;;4193991;28;19921;-60
2024/03/03 00:32:48;;;;;;;;;;;;;;;;;;4197889;28;19924;-60
2024/03/03 00:34:49;;;;;;;;;;;;;;;;;;4198607;28;20307;-61
2024/03/03 00:36:51;;;;;;;;;;;;;;;;;;4186233;28;19924;-60
2024/03/03 00:38:53;;;;;;;;;;;;;;;;;;4198002;28;20311;-61
2024/03/03 00:40:54;;;;;;;;;;;;;;;;;;4199031;28;19990;-60
2024/03/03 00:42:56;;;;;;;;;;;;;;;;;;4199230;28;19928;-60
2024/03/03 00:44:57;;;;;;;;;;;;;;;;;;4197933;28;20411;-60
2024/03/03 00:46:59;;;;;;;;;;;;;;;;;;4182290;28;19959;-60
2024/03/03 00:49:00;;;;;;;;;;;;;;;;;;4182270;28;19929;-60
2024/03/03 00:51:02;;;;;;;;;;;;;;;;;;4181332;28;19943;-60
2024/03/03 00:53:03;;;;;;;;;;;;;;;;;;4181309;28;19928;-60
2024/03/03 00:55:04;;;;;;;;;;;;;;;;;;4181825;28;19924;-60
2024/03/03 00:57:06;;;;;;;;;;;;;;;;;;4182074;28;20355;-61
2024/03/03 00:59:08;;;;;;;;;;;;;;;;;;4182347;28;19921;-61
2024/03/03 01:01:11;;;;;;;;;;;;;;;;;;4182129;28;19921;-61
2024/03/03 01:03:12;;;;;;;;;;;;;;;;;;4181980;28;19924;-61
2024/03/03 01:05:14;;;;;;;;;;;;;;;;;;4181719;28;19932;-61
2024/03/03 01:07:15;;;;;;;;;;;;;;;;;;4181662;28;19978;-61
2024/03/03 01:09:17;;;;;;;;;;;;;;;;;;4164390;28;19932;-61
2024/03/03 01:11:19;;;;;;;;;;;;;;;;;;4182082;28;19967;-61
2024/03/03 01:13:20;;;;;;;;;;;;;;;;;;4182021;28;19931;-61
2024/03/03 01:15:22;;;;;;;;;;;;;;;;;;4182250;28;19925;-61
2024/03/03 01:17:24;;;;;;;;;;;;;;;;;;4182225;28;20368;-61
2024/03/03 01:19:25;;;;;;;;;;;;;;;;;;4182209;28;19925;-60
2024/03/03 01:21:27;;;;;;;;;;;;;;;;;;4182190;28;19925;-61
2024/03/03 01:23:28;;;;;;;;;;;;;;;;;;4181739;28;19928;-61
2024/03/03 01:25:30;;;;;;;;;;;;;;;;;;4181811;28;19928;-61
2024/03/03 01:27:32;;;;;;;;;;;;;;;;;;4181779;28;19970;-61
2024/03/03 01:29:34;;;;;;;;;;;;;;;;;;4182178;28;19921;-61
2024/03/03 01:31:35;;;;;;;;;;;;;;;;;;4182146;28;19920;-60
2024/03/03 01:33:37;;;;;;;;;;;;;;;;;;4183100;28;19970;-60
2024/03/03 01:35:38;;;;;;;;;;;;;;;;;;4181916;28;19927;-60
2024/03/03 01:37:40;;;;;;;;;;;;;;;;;;4182032;28;19920;-60
2024/03/03 01:39:42;;;;;;;;;;;;;;;;;;4183421;28;20375;-61
2024/03/03 01:41:44;;;;;;;;;;;;;;;;;;4181215;28;19959;-61
2024/03/03 01:43:45;;;;;;;;;;;;;;;;;;4181822;28;19925;-61
2024/03/03 01:45:46;;;;;;;;;;;;;;;;;;4181214;28;19940;-61
2024/03/03 01:47:48;;;;;;;;;;;;;;;;;;4182807;28;20400;-60
2024/03/03 01:49:50;;;;;;;;;;;;;;;;;;4207293;28;19920;-60
2024/03/03 01:51:52;;;;;;;;;;;;;;;;;;4214849;28;19920;-60
2024/03/03 01:53:53;;;;;;;;;;;;;;;;;;4196769;28;20026;-60
2024/03/03 01:55:55;;;;;;;;;;;;;;;;;;4214985;28;19920;-60
2024/03/03 01:58:01;;;;;;;;;;;;;;;;;;4213497;28;19977;-60
2024/03/03 02:00:05;;;;;;;;;;;;;;;;;;4212871;28;20257;-60
2024/03/03 02:02:10;;;;;;;;;;;;;;;;;;4187087;28;19921;-60
2024/03/03 02:04:12;;;;;;;;;;;;;;;;;;4183644;28;19924;-60
2024/03/03 02:06:13;;;;;;;;;;;;;;;;;;4186653;28;19925;-61
2024/03/03 02:08:15;;;;;;;;;;;;;;;;;;4181113;28;20468;-60
2024/03/03 02:10:16;;;;;;;;;;;;;;;;;;4181369;28;19929;-60
2024/03/03 02:12:18;;;;;;;;;;;;;;;;;;4181229;28;20152;-61
2024/03/03 02:14:19;;;;;;;;;;;;;;;;;;4181156;28;19920;-60
2024/03/03 02:16:21;;;;;;;;;;;;;;;;;;4181135;28;19983;-60
2024/03/03 02:18:22;;;;;;;;;;;;;;;;;;4180972;28;19920;-61
2024/03/03 02:20:24;;;;;;;;;;;;;;;;;;4181300;28;19921;-61
2024/03/03 02:22:26;;;;;;;;;;;;;;;;;;4181241;28;19920;-60
2024/03/03 02:24:27;;;;;;;;;;;;;;;;;;4180856;28;19960;-60
2024/03/03 02:26:29;;;;;;;;;;;;;;;;;;4181032;28;19927;-60
2024/03/03 02:28:30;;;;;;;;;;;;;;;;;;4181212;28;20226;-60
2024/03/03 02:30:32;;;;;;;;;;;;;;;;;;4181254;28;19956;-60
2024/03/03 02:32:33;;;;;;;;;;;;;;;;;;4180957;28;19970;-60
2024/03/03 02:34:35;;;;;;;;;;;;;;;;;;4180937;28;19924;-60
2024/03/03 02:36:36;;;;;;;;;;;;;;;;;;4180910;28;19925;-60
2024/03/03 02:38:38;;;;;;;;;;;;;;;;;;4180838;28;19921;-60
2024/03/03 02:40:39;;;;;;;;;;;;;;;;;;4180845;28;19944;-60
2024/03/03 02:42:41;;;;;;;;;;;;;;;;;;4180865;28;19955;-60
2024/03/03 02:44:42;;;;;;;;;;;;;;;;;;4149333;28;19922;-60
2024/03/03 02:46:44;;;;;;;;;;;;;;;;;;4214133;28;19952;-61
2024/03/03 02:48:45;;;;;;;;;;;;;;;;;;4214019;28;19920;-60
2024/03/03 02:50:47;;;;;;;;;;;;;;;;;;4214083;28;20109;-60
2024/03/03 02:52:48;;;;;;;;;;;;;;;;;;4213152;28;19993;-61
2024/03/03 02:54:50;;;;;;;;;;;;;;;;;;4217005;28;19920;-60
2024/03/03 02:56:51;;;;;;;;;;;;;;;;;;4216992;28;19950;-60
2024/03/03 02:58:53;;;;;;;;;;;;;;;;;;4199128;28;19974;-60
2024/03/03 03:00:54;;;;;;;;;;;;;;;;;;4217115;28;20292;-60
2024/03/03 03:02:56;;;;;;;;;;;;;;;;;;4217246;28;19969;-60
2024/03/03 03:04:57;;;;;;;;;;;;;;;;;;4216833;28;19923;-61
2024/03/03 03:06:59;;;;;;;;;;;;;;;;;;4217562;28;19970;-60
2024/03/03 03:09:00;;;;;;;;;;;;;;;;;;4199652;28;19931;-60
2024/03/03 03:11:02;;;;;;;;;;;;;;;;;;4217275;28;19927;-61
2024/03/03 03:13:04;;;;;;;;;;;;;;;;;;4217169;28;19927;-60
2024/03/03 03:15:05;;;;;;;;;;;;;;;;;;4201668;28;20003;-60
2024/03/03 03:17:07;;;;;;;;;;;;;;;;;;4183906;28;20381;-61
2024/03/03 03:19:09;;;;;;;;;;;;;;;;;;4184080;28;20695;-60
2024/03/03 03:21:10;;;;;;;;;;;;;;;;;;4166324;28;19925;-61
2024/03/03 03:23:12;;;;;;;;;;;;;;;;;;4183854;28;19975;-61
2024/03/03 03:25:13;;;;;;;;;;;;;;;;;;4183696;28;19929;-60
2024/03/03 03:27:15;;;;;;;;;;;;;;;;;;4183771;28;19924;-60
2024/03/03 03:29:16;;;;;;;;;;;;;;;;;;4183926;28;19924;-60
2024/03/03 03:31:18;;;;;;;;;;;;;;;;;;4183678;28;20354;-60
2024/03/03 03:33:19;;;;;;;;;;;;;;;;;;4183592;28;20435;-60
2024/03/03 03:35:22;;;;;;;;;;;;;;;;;;4183592;28;19924;-60
2024/03/03 03:37:24;;;;;;;;;;;;;;;;;;4183602;28;19921;-60
2024/03/03 03:39:27;;;;;;;;;;;;;;;;;;4183759;28;20334;-60
2024/03/03 03:41:29;;;;;;;;;;;;;;;;;;4177311;28;19921;-61
2024/03/03 03:43:30;;;;;;;;;;;;;;;;;;4216647;28;19927;-61
2024/03/03 03:45:32;;;;;;;;;;;;;;;;;;4216640;28;19946;-61
2024/03/03 03:47:33;;;;;;;;;;;;;;;;;;4198805;28;19954;-60
2024/03/03 03:49:35;;;;;;;;;;;;;;;;;;4216933;28;19974;-60
2024/03/03 03:51:37;;;;;;;;;;;;;;;;;;4216919;28;19920;-61
2024/03/03 03:53:38;;;;;;;;;;;;;;;;;;4216622;28;19924;-60
2024/03/03 03:55:40;;;;;;;;;;;;;;;;;;4216806;28;19920;-60
2024/03/03 03:57:41;;;;;;;;;;;;;;;;;;4216517;28;19965;-60
2024/03/03 03:59:43;;;;;;;;;;;;;;;;;;4216547;28;19926;-60
2024/03/03 04:01:44;;;;;;;;;;;;;;;;;;4216428;28;19980;-60
2024/03/03 04:03:46;;;;;;;;;;;;;;;;;;4216196;28;19920;-61
2024/03/03 04:05:47;;;;;;;;;;;;;;;;;;4197825;28;19920;-60
2024/03/03 04:07:49;;;;;;;;;;;;;;;;;;4204222;28;19920;-60
2024/03/03 04:09:50;;;;;;;;;;;;;;;;;;4199639;28;19920;-60
2024/03/03 04:11:52;;;;;;;;;;;;;;;;;;4187499;28;19929;-61
2024/03/03 04:13:54;;;;;;;;;;;;;;;;;;4183020;28;19921;-60
2024/03/03 04:15:55;;;;;;;;;;;;;;;;;;4183010;28;19975;-61
2024/03/03 04:17:57;;;;;;;;;;;;;;;;;;4182909;28;19921;-60
2024/03/03 04:19:58;;;;;;;;;;;;;;;;;;4165137;28;20452;-61
2024/03/03 04:22:00;;;;;;;;;;;;;;;;;;4183139;28;19921;-61
2024/03/03 04:24:01;;;;;;;;;;;;;;;;;;4165038;28;19956;-60
2024/03/03 04:26:03;;;;;;;;;;;;;;;;;;4182833;28;19974;-61
2024/03/03 04:28:04;;;;;;;;;;;;;;;;;;4165050;28;20397;-61
2024/03/03 04:30:06;;;;;;;;;;;;;;;;;;4165004;28;19921;-60
2024/03/03 04:32:08;;;;;;;;;;;;;;;;;;4182888;28;19928;-61
2024/03/03 04:34:10;;;;;;;;;;;;;;;;;;4164981;28;19925;-60
2024/03/03 04:36:11;;;;;;;;;;;;;;;;;;4182750;28;19920;-61
2024/03/03 04:38:13;;;;;;;;;;;;;;;;;;4202395;28;20018;-61
2024/03/03 04:40:14;;;;;;;;;;;;;;;;;;4216004;28;19931;-60
2024/03/03 04:42:16;;;;;;;;;;;;;;;;;;4215785;28;19920;-61
2024/03/03 04:44:18;;;;;;;;;;;;;;;;;;4215952;28;19927;-61
2024/03/03 04:46:19;;;;;;;;;;;;;;;;;;4215643;28;19920;-61
2024/03/03 04:48:22;;;;;;;;;;;;;;;;;;4197745;28;20311;-61
2024/03/03 04:50:24;;;;;;;;;;;;;;;;;;4215946;28;19920;-61
2024/03/03 04:52:25;;;;;;;;;;;;;;;;;;4216193;28;19927;-60
2024/03/03 04:54:27;;;;;;;;;;;;;;;;;;4215952;28;20010;-61
2024/03/03 04:56:28;;;;;;;;;;;;;;;;;;4216007;28;20291;-60
2024/03/03 04:58:29;;;;;;;;;;;;;;;;;;4215843;28;19920;-60
2024/03/03 05:00:32;;;;;;;;;;;;;;;;;;4215605;28;19955;-60
2024/03/03 05:02:34;;;;;;;;;;;;;;;;;;4215636;28;19924;-60
2024/03/03 05:04:35;;;;;;;;;;;;;;;;;;4215347;28;19924;-60
2024/03/03 05:06:37;;;;;;;;;;;;;;;;;;4215517;28;20283;-60
2024/03/03 05:08:38;;;;;;;;;;;;;;;;;;4182630;28;19925;-61
2024/03/03 05:10:40;;;;;;;;;;;;;;;;;;4182102;28;19943;-60
2024/03/03 05:12:42;;;;;;;;;;;;;;;;;;4182193;28;19921;-60
2024/03/03 05:14:44;;;;;;;;;;;;;;;;;;4182124;28;20011;-60
2024/03/03 05:16:45;;;;;;;;;;;;;;;;;;4181357;28;19921;-61
2024/03/03 05:18:47;;;;;;;;;;;;;;;;;;4182021;28;19924;-60
2024/03/03 05:20:48;;;;;;;;;;;;;;;;;;4182054;28;19978;-60
2024/03/03 05:22:50;;;;;;;;;;;;;;;;;;4181952;28;19951;-61
2024/03/03 05:24:51;;;;;;;;;;;;;;;;;;4182145;28;19924;-61
2024/03/03 05:26:53;;;;;;;;;;;;;;;;;;4182165;28;19928;-61
2024/03/03 05:28:54;;;;;;;;;;;;;;;;;;4181935;28;19956;-61
2024/03/03 05:30:56;;;;;;;;;;;;;;;;;;4181846;28;19925;-61
2024/03/03 05:32:57;;;;;;;;;;;;;;;;;;4181685;28;19947;-60
2024/03/03 05:34:59;;;;;;;;;;;;;;;;;;4210148;28;19923;-61
2024/03/03 05:37:00;;;;;;;;;;;;;;;;;;4215082;28;20433;-61
2024/03/03 05:39:02;;;;;;;;;;;;;;;;;;4215005;28;20367;-60
2024/03/03 05:41:03;;;;;;;;;;;;;;;;;;4214916;28;19920;-60
2024/03/03 05:43:05;;;;;;;;;;;;;;;;;;4215139;28;19923;-60
2024/03/03 05:45:06;;;;;;;;;;;;;;;;;;4214651;28;19927;-61
2024/03/03 05:47:09;;;;;;;;;;;;;;;;;;4214930;28;19978;-60
2024/03/03 05:49:10;;;;;;;;;;;;;;;;;;4215078;28;19923;-60
2024/03/03 05:51:12;;;;;;;;;;;;;;;;;;4215111;28;20037;-60
2024/03/03 05:53:13;;;;;;;;;;;;;;;;;;4214830;28;20650;-60
2024/03/03 05:55:15;;;;;;;;;;;;;;;;;;4214811;28;19927;-61
2024/03/03 05:57:16;;;;;;;;;;;;;;;;;;4214687;28;19927;-61
2024/03/03 05:59:18;;;;;;;;;;;;;;;;;;4208546;28;19931;-60
2024/03/03 06:01:19;;;;;;;;;;;;;;;;;;4184353;28;19936;-60
2024/03/03 06:03:21;;;;;;;;;;;;;;;;;;4195968;28;19982;-60
2024/03/03 06:05:22;;;;;;;;;;;;;;;;;;4197611;28;19927;-60
2024/03/03 06:07:24;;;;;;;;;;;;;;;;;;4180028;28;20384;-60
2024/03/03 06:09:26;;;;;;;;;;;;;;;;;;4197925;28;20323;-60
2024/03/03 06:11:27;;;;;;;;;;;;;;;;;;4195698;28;19967;-60
2024/03/03 06:13:29;;;;;;;;;;;;;;;;;;4183024;28;20099;-60
2024/03/03 06:15:30;;;;;;;;;;;;;;;;;;4190126;28;19928;-60
2024/03/03 06:17:32;;;;;;;;;;;;;;;;;;4197688;28;19920;-60
2024/03/03 06:19:33;;;;;;;;;;;;;;;;;;4197279;28;19920;-60
2024/03/03 06:21:35;;;;;;;;;;;;;;;;;;4181458;28;20273;-60
2024/03/03 06:23:36;;;;;;;;;;;;;;;;;;4163165;28;19971;-60
2024/03/03 06:25:38;;;;;;;;;;;;;;;;;;4180882;28;19920;-60
2024/03/03 06:27:39;;;;;;;;;;;;;;;;;;4180769;28;19925;-60
2024/03/03 06:29:41;;;;;;;;;;;;;;;;;;4183757;28;19967;-60
2024/03/03 06:31:42;;;;;;;;;;;;;;;;;;4214517;28;20372;-60
2024/03/03 06:33:44;;;;;;;;;;;;;;;;;;4214134;28;19927;-60
2024/03/03 06:35:46;;;;;;;;;;;;;;;;;;4214262;28;19920;-60
2024/03/03 06:37:48;;;;;;;;;;;;;;;;;;4214142;28;20011;-60
2024/03/03 06:39:50;;;;;;;;;;;;;;;;;;4196290;28;20390;-60
2024/03/03 06:41:53;;;;;;;;;;;;;;;;;;4214382;28;19962;-60
2024/03/03 06:43:55;;;;;;;;;;;;;;;;;;4187729;28;20000;-60
2024/03/03 06:45:57;;;;;;;;;;;;;;;;;;4181764;28;19930;-60
2024/03/03 06:47:59;;;;;;;;;;;;;;;;;;4180919;28;19932;-60
2024/03/03 06:50:00;;;;;;;;;;;;;;;;;;4180861;28;19925;-60
2024/03/03 06:52:03;;;;;;;;;;;;;;;;;;4180957;28;19990;-60
2024/03/03 06:54:06;;;;;;;;;;;;;;;;;;4180785;28;19920;-60
2024/03/03 06:56:07;;;;;;;;;;;;;;;;;;4180785;28;19932;-61
2024/03/03 06:58:09;;;;;;;;;;;;;;;;;;4180790;28;19928;-60
2024/03/03 07:00:10;;;;;;;;;;;;;;;;;;4162836;28;19979;-60
2024/03/03 07:02:12;;;;;;;;;;;;;;;;;;4180792;28;19931;-61
2024/03/03 07:04:20;;;;;;;;;;;;;;;;;;4179413;28;20459;-61
2024/03/03 07:06:22;;;;;;;;;;;;;;;;;;4180359;28;19927;-60
2024/03/03 07:08:23;;;;;;;;;;;;;;;;;;4181047;28;19921;-61
2024/03/03 07:10:25;;;;;;;;;;;;;;;;;;4186530;28;19924;-61
2024/03/03 07:12:27;;;;;;;;;;;;;;;;;;4182111;28;19920;-61
2024/03/03 07:14:28;;;;;;;;;;;;;;;;;;4185065;28;19927;-61
2024/03/03 07:16:30;;;;;;;;;;;;;;;;;;4180499;28;19920;-61
2024/03/03 07:18:31;;;;;;;;;;;;;;;;;;4180440;28;19928;-61
2024/03/03 07:20:33;;;;;;;;;;;;;;;;;;4180440;28;19921;-61
2024/03/03 07:22:35;;;;;;;;;;;;;;;;;;4188913;28;19920;-61
2024/03/03 07:24:37;;;;;;;;;;;;;;;;;;4180500;28;19921;-61
2024/03/03 07:26:38;;;;;;;;;;;;;;;;;;4194664;28;19955;-61
2024/03/03 07:28:39;;;;;;;;;;;;;;;;;;4213867;28;19924;-61
2024/03/03 07:30:41;;;;;;;;;;;;;;;;;;4193343;28;20371;-61
2024/03/03 07:32:43;;;;;;;;;;;;;;;;;;4180271;28;19936;-61
2024/03/03 07:34:48;;;;;;;;;;;;;;;;;;4179600;28;19920;-61
2024/03/03 07:36:49;;;;;;;;;;;;;;;;;;4179456;28;19924;-61
2024/03/03 07:38:51;;;;;;;;;;;;;;;;;;4185067;28;19924;-61
2024/03/03 07:40:52;;;;;;;;;;;;;;;;;;4182895;28;20376;-61
2024/03/03 07:42:54;;;;;;;;;;;;;;;;;;4183359;28;19921;-61
2024/03/03 07:44:55;;;;;;;;;;;;;;;;;;4183123;28;19925;-61
2024/03/03 07:46:57;;;;;;;;;;;;;;;;;;4183355;28;20361;-61
2024/03/03 07:48:59;;;;;;;;;;;;;;;;;;4183403;28;19925;-61
2024/03/03 07:51:02;;;;;;;;;;;;;;;;;;4186581;28;20292;-61
2024/03/03 07:53:03;;;;;;;;;;;;;;;;;;4183138;28;19920;-61
2024/03/03 07:55:05;;;;;;;;;;;;;;;;;;4183275;28;19960;-61
2024/03/03 07:57:07;;;;;;;;;;;;;;;;;;4183326;28;19956;-62
2024/03/03 07:59:08;;;;;;;;;;;;;;;;;;4183159;28;19936;-61
2024/03/03 08:01:10;;;;;;;;;;;;;;;;;;4182954;28;19940;-61
2024/03/03 08:03:11;;;;;;;;;;;;;;;;;;4182892;28;20004;-61
2024/03/03 08:05:13;;;;;;;;;;;;;;;;;;4183376;28;19920;-61
2024/03/03 08:07:14;;;;;;;;;;;;;;;;;;4182997;28;19932;-61
2024/03/03 08:09:16;;;;;;;;;;;;;;;;;;4183689;28;19920;-61
2024/03/03 08:11:17;;;;;;;;;;;;;;;;;;4190275;28;19927;-62
2024/03/03 08:13:19;;;;;;;;;;;;;;;;;;4187735;28;19931;-61
2024/03/03 08:15:20;;;;;;;;;;;;;;;;;;4182487;28;20407;-61
2024/03/03 08:17:22;;;;;;;;;;;;;;;;;;4182703;28;19947;-62
2024/03/03 08:19:23;;;;;;;;;;;;;;;;;;4183285;28;19928;-61
2024/03/03 08:21:25;;;;;;;;;;;;;;;;;;4187112;28;19928;-62
2024/03/03 08:23:26;;;;;;;;;;;;;;;;;;4199618;28;19972;-62
2024/03/03 08:25:28;;;;;;;;;;;;;;;;;;4199582;28;19920;-61
2024/03/03 08:27:29;;;;;;;;;;;;;;;;;;4199239;28;19925;-61
2024/03/03 08:29:31;;;;;;;;;;;;;;;;;;4199415;28;19920;-62
2024/03/03 08:31:35;;;;;;;;;;;;;;;;;;4184819;28;20011;-61
2024/03/03 08:33:37;;;;;;;;;;;;;;;;;;4189778;28;20011;-62
2024/03/03 08:35:39;;;;;;;;;;;;;;;;;;4193627;28;19956;-62
2024/03/03 08:37:43;;;;;;;;;;;;;;;;;;4182834;28;19968;-61
2024/03/03 08:39:44;;;;;;;;;;;;;;;;;;4183453;28;19962;-62
2024/03/03 08:41:46;;;;;;;;;;;;;;;;;;4192943;28;19940;-61
2024/03/03 08:43:47;;;;;;;;;;;;;;;;;;4185247;28;19994;-61
2024/03/03 08:45:49;;;;;;;;;;;;;;;;;;4191612;28;19924;-62
2024/03/03 08:47:50;;;;;;;;;;;;;;;;;;4188682;28;19924;-61
2024/03/03 08:49:52;;;;;;;;;;;;;;;;;;4189201;28;19924;-62
2024/03/03 08:51:54;;;;;;;;;;;;;;;;;;4182260;28;19936;-62
2024/03/03 08:53:55;;;;;;;;;;;;;;;;;;4182405;28;19946;-62
2024/03/03 08:55:57;;;;;;;;;;;;;;;;;;4182353;28;19925;-62
2024/03/03 08:57:58;;;;;;;;;;;;;;;;;;4188540;28;19966;-62
2024/03/03 09:00:00;;;;;;;;;;;;;;;;;;4191527;28;20342;-62
2024/03/03 09:02:01;;;;;;;;;;;;;;;;;;4182237;28;19921;-62
2024/03/03 09:04:03;;;;;;;;;;;;;;;;;;4181896;28;19921;-62
2024/03/03 09:06:05;;;;;;;;;;;;;;;;;;4181794;28;20273;-62
2024/03/03 09:08:06;;;;;;;;;;;;;;;;;;4182167;28;19928;-62
2024/03/03 09:10:08;;;;;;;;;;;;;;;;;;4184231;28;20014;-62
2024/03/03 09:12:09;;;;;;;;;;;;;;;;;;4170398;28;20243;-62
2024/03/03 09:14:11;;;;;;;;;;;;;;;;;;4190532;28;19920;-62
2024/03/03 09:16:13;;;;;;;;;;;;;;;;;;4164270;28;19920;-62
2024/03/03 09:18:14;;;;;;;;;;;;;;;;;;4181802;28;19947;-62
2024/03/03 09:20:17;;;;;;;;;;;;;;;;;;4214835;28;19920;-62
2024/03/03 09:22:18;;;;;;;;;;;;;;;;;;4214844;28;20572;-62
2024/03/03 09:24:22;;;;;;;;;;;;;;;;;;4215080;28;19924;-62
2024/03/03 09:26:24;;;;;;;;;;;;;;;;;;4215182;28;19924;-62
2024/03/03 09:28:25;;;;;;;;;;;;;;;;;;4214610;28;19920;-62
2024/03/03 09:30:27;;;;;;;;;;;;;;;;;;4189411;28;20764;-62
2024/03/03 09:32:30;;;;;;;;;;;;;;;;;;4187545;28;19932;-62
2024/03/03 09:34:32;;;;;;;;;;;;;;;;;;4182833;28;19924;-62
2024/03/03 09:36:34;;;;;;;;;;;;;;;;;;4181765;28;19928;-62
2024/03/03 09:38:36;;;;;;;;;;;;;;;;;;4179428;28;19967;-62
2024/03/03 09:40:38;;;;;;;;;;;;;;;;;;4188370;28;19936;-62
2024/03/03 09:42:39;;;;;;;;;;;;;;;;;;4179773;28;19928;-62
2024/03/03 09:44:41;;;;;;;;;;;;;;;;;;4188358;28;19981;-62
2024/03/03 09:46:43;;;;;;;;;;;;;;;;;;4188136;28;20295;-62
2024/03/03 09:48:44;;;;;;;;;;;;;;;;;;4181490;28;20007;-62
2024/03/03 09:50:46;;;;;;;;;;;;;;;;;;4183616;28;19921;-62
2024/03/03 09:52:47;;;;;;;;;;;;;;;;;;4184789;28;20004;-62
2024/03/03 09:54:49;;;;;;;;;;;;;;;;;;4180588;28;19921;-62
2024/03/03 09:56:51;;;;;;;;;;;;;;;;;;4180607;28;19956;-62
2024/03/03 09:58:53;;;;;;;;;;;;;;;;;;4178252;28;19990;-61
2024/03/03 10:00:54;;;;;;;;;;;;;;;;;;4180011;28;19921;-62
2024/03/03 10:02:56;;;;;;;;;;;;;;;;;;4179972;28;19928;-62
2024/03/03 10:04:57;;;;;;;;;;;;;;;;;;4181541;28;19978;-62
2024/03/03 10:06:59;;;;;;;;;;;;;;;;;;4173628;28;19959;-62
2024/03/03 10:09:01;;;;;;;;;;;;;;;;;;4186583;28;19979;-62
2024/03/03 10:11:03;;;;;;;;;;;;;;;;;;4181365;28;19970;-62
2024/03/03 10:13:20;;;;;;;;;;;;;;;;;;4182846;28;19935;-62
2024/03/03 10:15:21;;;;;;;;;;;;;;;;;;4194589;28;19927;-62
2024/03/03 10:17:23;;;;;;;;;;;;;;;;;;4214264;28;19920;-62
2024/03/03 10:19:26;;;;;;;;;;;;;;;;;;4214463;28;19920;-62
2024/03/03 10:21:28;;;;;;;;;;;;;;;;;;4214010;28;20373;-62
2024/03/03 10:23:31;;;;;;;;;;;;;;;;;;4180228;28;19925;-62
2024/03/03 10:25:33;;;;;;;;;;;;;;;;;;4180823;28;19921;-62
2024/03/03 10:27:34;;;;;;;;;;;;;;;;;;4181003;28;19970;-62
2024/03/03 10:29:37;;;;;;;;;;;;;;;;;;4180076;28;19931;-62
2024/03/03 10:31:38;;;;;;;;;;;;;;;;;;4180175;28;19999;-62
2024/03/03 10:33:40;;;;;;;;;;;;;;;;;;4183220;28;19963;-62
2024/03/03 10:35:41;;;;;;;;;;;;;;;;;;4188384;28;19924;-62
2024/03/03 10:37:43;;;;;;;;;;;;;;;;;;4180357;28;19920;-62
2024/03/03 10:39:44;;;;;;;;;;;;;;;;;;4184206;28;19974;-63
2024/03/03 10:41:46;;;;;;;;;;;;;;;;;;4192749;28;20345;-62
2024/03/03 10:43:47;;;;;;;;;;;;;;;;;;4186296;28;19920;-62
2024/03/03 10:45:49;;;;;;;;;;;;;;;;;;4189836;28;19920;-62
2024/03/03 10:47:51;;;;;;;;;;;;;;;;;;4185680;28;20331;-62
2024/03/03 10:49:52;;;;;;;;;;;;;;;;;;4186926;28;19920;-62
2024/03/03 10:51:54;;;;;;;;;;;;;;;;;;4197180;28;20449;-63
2024/03/03 10:53:55;;;;;;;;;;;;;;;;;;4197383;28;19921;-63
2024/03/03 10:55:57;;;;;;;;;;;;;;;;;;4194772;28;19928;-62
2024/03/03 10:57:58;;;;;;;;;;;;;;;;;;4191309;28;19927;-62
2024/03/03 11:00:00;;;;;;;;;;;;;;;;;;4194529;28;19943;-63
2024/03/03 11:02:01;;;;;;;;;;;;;;;;;;4186756;28;19920;-62
2024/03/03 11:04:03;;;;;;;;;;;;;;;;;;4190487;28;20015;-63
2024/03/03 11:06:05;;;;;;;;;;;;;;;;;;4185747;28;20384;-62
2024/03/03 11:08:07;;;;;;;;;;;;;;;;;;4184470;28;19924;-62
2024/03/03 11:10:08;;;;;;;;;;;;;;;;;;4187018;28;19920;-62
2024/03/03 11:12:11;;;;;;;;;;;;;;;;;;4192310;28;19924;-62
2024/03/03 11:14:12;;;;;;;;;;;;;;;;;;4189698;28;19920;-63
2024/03/03 11:16:14;;;;;;;;;;;;;;;;;;4189124;28;20469;-62
2024/03/03 11:18:15;;;;;;;;;;;;;;;;;;4185523;28;19978;-63
2024/03/03 11:20:17;;;;;;;;;;;;;;;;;;4186777;28;20705;-62
2024/03/03 11:22:18;;;;;;;;;;;;;;;;;;4183454;28;19929;-61
2024/03/03 11:24:23;;;;;;;;;;;;;;;;;;4183673;28;19921;-61
2024/03/03 11:26:25;;;;;;;;;;;;;;;;;;4183776;28;20136;-62
2024/03/03 11:28:27;;;;;;;;;;;;;;;;;;4183575;28;19921;-62
2024/03/03 11:30:29;;;;;;;;;;;;;;;;;;4183523;28;19931;-62
2024/03/03 11:32:30;;;;;;;;;;;;;;;;;;4185567;28;20299;-61
2024/03/03 11:34:32;;;;;;;;;;;;;;;;;;4198225;28;19928;-62
2024/03/03 11:36:34;;;;;;;;;;;;;;;;;;4191930;28;19924;-62
2024/03/03 11:38:35;;;;;;;;;;;;;;;;;;4183534;28;19925;-61
2024/03/03 11:40:37;;;;;;;;;;;;;;;;;;4183384;28;19924;-61
2024/03/03 11:42:38;;;;;;;;;;;;;;;;;;4184565;28;19927;-61
2024/03/03 11:44:40;;;;;;;;;;;;;;;;;;4183047;28;19935;-61
2024/03/03 11:46:42;;;;;;;;;;;;;;;;;;4192628;28;19966;-61
2024/03/03 11:48:43;;;;;;;;;;;;;;;;;;4188329;28;19921;-61
2024/03/03 11:50:44;;;;;;;;;;;;;;;;;;4182511;28;20347;-62
2024/03/03 11:52:46;;;;;;;;;;;;;;;;;;4183410;28;19925;-61
2024/03/03 11:54:48;;;;;;;;;;;;;;;;;;4182659;28;19928;-61
2024/03/03 11:56:49;;;;;;;;;;;;;;;;;;4181167;28;19924;-62
2024/03/03 11:58:50;;;;;;;;;;;;;;;;;;4182773;28;19955;-61
2024/03/03 12:00:52;;;;;;;;;;;;;;;;;;4182675;28;19974;-61
2024/03/03 12:02:54;;;;;;;;;;;;;;;;;;4182641;28;20380;-61
2024/03/03 12:04:55;;;;;;;;;;;;;;;;;;4182541;28;19921;-62
2024/03/03 12:06:56;;;;;;;;;;;;;;;;;;4182636;28;20020;-62
2024/03/03 12:08:58;;;;;;;;;;;;;;;;;;4214773;28;19967;-61
2024/03/03 12:10:59;;;;;;;;;;;;;;;;;;4215725;28;20295;-62
2024/03/03 12:13:01;;;;;;;;;;;;;;;;;;4204119;28;19977;-62
2024/03/03 12:15:03;;;;;;;;;;;;;;;;;;4198926;28;20308;-61
2024/03/03 12:17:04;;;;;;;;;;;;;;;;;;4188528;28;19928;-61
2024/03/03 12:19:08;;;;;;;;;;;;;;;;;;4182945;28;19924;-62
2024/03/03 12:21:12;;;;;;;;;;;;;;;;;;4182708;28;19924;-62
2024/03/03 12:23:15;;;;;;;;;;;;;;;;;;4182447;28;19927;-61
2024/03/03 12:25:17;;;;;;;;;;;;;;;;;;4182347;28;19921;-62
2024/03/03 12:27:18;;;;;;;;;;;;;;;;;;4181673;28;20549;-61
2024/03/03 12:29:20;;;;;;;;;;;;;;;;;;4182559;28;19924;-62
2024/03/03 12:31:21;;;;;;;;;;;;;;;;;;4181985;28;19929;-62
2024/03/03 12:33:23;;;;;;;;;;;;;;;;;;4182101;28;19921;-61
2024/03/03 12:35:24;;;;;;;;;;;;;;;;;;4164873;28;20015;-61
2024/03/03 12:37:26;;;;;;;;;;;;;;;;;;4182552;28;19928;-61
2024/03/03 12:39:27;;;;;;;;;;;;;;;;;;4182570;28;19936;-62
2024/03/03 12:41:29;;;;;;;;;;;;;;;;;;4182404;28;19932;-62
2024/03/03 12:43:31;;;;;;;;;;;;;;;;;;4182834;28;19924;-61
2024/03/03 12:45:32;;;;;;;;;;;;;;;;;;4198654;28;19935;-61
2024/03/03 12:47:34;;;;;;;;;;;;;;;;;;4182187;28;19925;-62
2024/03/03 12:49:36;;;;;;;;;;;;;;;;;;4182115;28;19924;-61
2024/03/03 12:51:37;;;;;;;;;;;;;;;;;;4188407;28;19924;-63
2024/03/03 12:53:39;;;;;;;;;;;;;;;;;;4198969;28;20386;-62
2024/03/03 12:55:41;;;;;;;;;;;;;;;;;;4198947;28;19997;-62
2024/03/03 12:57:43;;;;;;;;;;;;;;;;;;4184060;28;19928;-62
2024/03/03 12:59:45;;;;;;;;;;;;;;;;;;4165708;28;20460;-62
2024/03/03 13:01:46;;;;;;;;;;;;;;;;;;4182144;28;19920;-61
2024/03/03 13:03:48;;;;;;;;;;;;;;;;;;4191702;28;19942;-61
2024/03/03 13:05:49;;;;;;;;;;;;;;;;;;4210958;28;19920;-61
2024/03/03 13:07:51;;;;;;;;;;;;;;;;;;4184340;28;19944;-61
2024/03/03 13:09:52;;;;;;;;;;;;;;;;;;4190325;28;19924;-60
2024/03/03 13:11:55;;;;;;;;;;;;;;;;;;4181457;28;19924;-61
2024/03/03 13:13:56;;;;;;;;;;;;;;;;;;4181866;28;19970;-61
2024/03/03 13:15:58;;;;;;;;;;;;;;;;;;4181685;28;20373;-61
2024/03/03 13:18:00;;;;;;;;;;;;;;;;;;4181848;28;19925;-61
2024/03/03 13:20:01;;;;;;;;;;;;;;;;;;4182614;28;19921;-61
2024/03/03 13:22:03;;;;;;;;;;;;;;;;;;4196552;28;19924;-61
2024/03/03 13:24:04;;;;;;;;;;;;;;;;;;4186607;28;19978;-62
2024/03/03 13:26:06;;;;;;;;;;;;;;;;;;4196000;28;20441;-61
2024/03/03 13:28:07;;;;;;;;;;;;;;;;;;4182654;28;19970;-61
2024/03/03 13:30:09;;;;;;;;;;;;;;;;;;4192353;28;20385;-61
2024/03/03 13:32:10;;;;;;;;;;;;;;;;;;4191035;28;19977;-61
2024/03/03 13:34:12;;;;;;;;;;;;;;;;;;4188353;28;19974;-61
2024/03/03 13:36:14;;;;;;;;;;;;;;;;;;4172577;28;20015;-61
2024/03/03 13:38:15;;;;;;;;;;;;;;;;;;4187280;28;19927;-61
2024/03/03 13:40:16;;;;;;;;;;;;;;;;;;4169878;28;19960;-61
2024/03/03 13:42:18;;;;;;;;;;;;;;;;;;4187278;28;19929;-61
2024/03/03 13:44:19;;;;;;;;;;;;;;;;;;4187973;28;19920;-61
2024/03/03 13:46:21;;;;;;;;;;;;;;;;;;4186513;28;19925;-60
2024/03/03 13:48:22;;;;;;;;;;;;;;;;;;4185693;28;19924;-61
2024/03/03 13:50:24;;;;;;;;;;;;;;;;;;4195404;28;19986;-61